Time;durP1;ratioP1;P1;durP2;ratioP2;P2;SDS_P1;SDS_P2;PMS_P1;PMS_P2;Temp;Humidity;BMP_temperature;BMP_pressure;BME280_temperature;BME280_humidity;BME280_pressure;Samples;Min_cycle;Max_cycle;Signal;HPM_P1;HPM_P2
2023/05/18 00:00:09;;;;;;;11.65;4.53;;;11.60;99.90;;;;;;5068202;28;20048;-58
2023/05/18 00:02:37;;;;;;;9.85;4.35;;;12.80;99.90;;;;;;5066446;28;20078;-58
2023/05/18 00:05:09;;;;;;;15.27;4.88;;;11.60;99.90;;;;;;5067742;28;20041;-57
2023/05/18 00:07:38;;;;;;;12.13;5.35;;;11.60;99.90;;;;;;5053134;28;20049;-59
2023/05/18 00:10:06;;;;;;;9.20;5.07;;;11.60;99.90;;;;;;5062652;28;20056;-60
2023/05/18 00:12:34;;;;;;;10.13;4.75;;;11.60;99.90;;;;;;5064413;28;20053;-57
2023/05/18 00:15:03;;;;;;;12.95;5.32;;;11.50;99.90;;;;;;5066069;28;20056;-58
2023/05/18 00:17:31;;;;;;;10.00;5.38;;;11.50;99.90;;;;;;5069489;28;20057;-57
2023/05/18 00:20:00;;;;;;;13.88;5.43;;;11.50;99.90;;;;;;5067022;28;20329;-58
2023/05/18 00:22:28;;;;;;;10.10;4.75;;;11.40;99.90;;;;;;5066590;28;20059;-58
2023/05/18 00:24:56;;;;;;;11.93;4.60;;;11.50;99.90;;;;;;5078932;28;20507;-59
2023/05/18 00:27:24;;;;;;;7.05;4.05;;;11.40;99.90;;;;;;5058362;28;20213;-59
2023/05/18 00:29:53;;;;;;;9.23;4.35;;;11.40;99.90;;;;;;5070979;28;20552;-59
2023/05/18 00:32:21;;;;;;;8.40;4.40;;;11.40;99.90;;;;;;5070387;28;20041;-57
2023/05/18 00:34:48;;;;;;;12.77;4.90;;;11.40;99.90;;;;;;5063734;28;20063;-59
2023/05/18 00:37:16;;;;;;;10.90;4.32;;;11.40;99.90;;;;;;5054757;28;20040;-59
2023/05/18 00:39:45;;;;;;;8.77;4.22;;;11.30;99.90;;;;;;5068179;28;20052;-59
2023/05/18 00:42:13;;;;;;;10.55;5.32;;;11.30;99.90;;;;;;5066842;28;20044;-59
2023/05/18 00:44:41;;;;;;;13.65;4.88;;;11.30;99.90;;;;;;5075088;28;20588;-58
2023/05/18 00:47:09;;;;;;;11.48;5.80;;;11.30;99.90;;;;;;5061525;28;20056;-59
2023/05/18 00:49:37;;;;;;;11.60;4.70;;;11.30;99.90;;;;;;5071428;28;20049;-58
2023/05/18 00:52:05;;;;;;;10.00;4.80;;;11.30;99.90;;;;;;5071150;28;20055;-59
2023/05/18 00:54:34;;;;;;;18.25;4.55;;;11.20;99.90;;;;;;5076888;28;20040;-58
2023/05/18 00:57:04;;;;;;;8.40;4.28;;;11.20;99.90;;;;;;5075505;28;20048;-58
2023/05/18 00:59:33;;;;;;;11.38;4.75;;;11.20;99.90;;;;;;5066403;28;20487;-58
2023/05/18 01:02:01;;;;;;;11.85;5.38;;;11.20;99.90;;;;;;5069917;28;20044;-57
2023/05/18 01:04:30;;;;;;;14.10;4.53;;;11.20;99.90;;;;;;5073926;28;20290;-59
2023/05/18 01:07:05;;;;;;;13.23;5.23;;;11.20;99.90;;;;;;5087347;28;20048;-59
2023/05/18 01:09:33;;;;;;;14.65;4.68;;;11.10;99.90;;;;;;5072937;28;20037;-57
2023/05/18 01:12:43;;;;;;;12.90;4.78;;;11.20;99.90;;;;;;5065210;28;20060;-57
2023/05/18 01:15:16;;;;;;;;;;;11.20;99.90;;;;;;5080461;28;20067;-58
2023/05/18 01:17:50;;;;;;;9.20;4.70;;;11.10;99.90;;;;;;5087099;28;19940;-56
2023/05/18 01:20:38;;;;;;;10.23;5.20;;;11.10;99.90;;;;;;5070103;28;20523;-57
2023/05/18 01:23:28;;;;;;;13.60;5.45;;;11.00;99.90;;;;;;5070774;28;20048;-57
2023/05/18 01:25:56;;;;;;;15.35;5.22;;;11.00;99.90;;;;;;5068829;28;20044;-59
2023/05/18 01:28:31;;;;;;;12.60;5.20;;;11.00;99.90;;;;;;5058046;28;20053;-58
2023/05/18 01:31:00;;;;;;;11.48;5.25;;;10.90;99.90;;;;;;5062445;28;20044;-58
2023/05/18 01:33:28;;;;;;;13.43;5.70;;;10.90;99.90;;;;;;5051408;28;20045;-59
2023/05/18 01:35:56;;;;;;;10.45;5.15;;;10.90;99.90;;;;;;5055679;28;20052;-57
2023/05/18 01:38:27;;;;;;;11.93;5.30;;;10.90;99.90;;;;;;5072576;28;20037;-59
2023/05/18 01:41:21;;;;;;;10.25;4.80;;;10.80;99.90;;;;;;5073164;28;20045;-57
2023/05/18 01:44:14;;;;;;;12.35;6.25;;;10.80;99.90;;;;;;5072409;28;20386;-58
2023/05/18 01:47:09;;;;;;;14.57;5.50;;;10.70;99.90;;;;;;5058473;28;20045;-58
2023/05/18 01:50:05;;;;;;;16.98;5.80;;;10.70;99.90;;;;;;5080607;28;20040;-58
2023/05/18 01:52:47;;;;;;;9.25;5.65;;;10.70;99.90;;;;;;5071757;28;20044;-56
2023/05/18 01:55:17;;;;;;;12.30;5.07;;;10.60;99.90;;;;;;5072634;28;20403;-59
2023/05/18 01:57:46;;;;;;;;;;;10.60;99.90;;;;;;5073255;28;20044;-58
2023/05/18 02:00:16;;;;;;;13.32;5.03;;;10.60;99.90;;;;;;5072371;28;19928;-59
2023/05/18 02:02:44;;;;;;;17.93;5.53;;;10.60;99.90;;;;;;5072975;28;20059;-59
2023/05/18 02:05:15;;;;;;;12.50;5.28;;;10.60;99.90;;;;;;5071298;28;20549;-60
2023/05/18 02:07:46;;;;;;;10.90;5.53;;;10.50;99.90;;;;;;5072185;28;20048;-57
2023/05/18 02:10:14;;;;;;;16.52;6.07;;;10.50;99.90;;;;;;5072239;28;20040;-58
2023/05/18 02:12:43;;;;;;;12.90;5.30;;;10.50;99.90;;;;;;5071903;28;21366;-59
2023/05/18 02:15:11;;;;;;;12.05;5.22;;;10.50;99.90;;;;;;5071897;28;20056;-60
2023/05/18 02:17:39;;;;;;;10.50;4.97;;;10.50;99.90;;;;;;5074830;28;20050;-58
2023/05/18 02:20:11;;;;;;;11.00;4.78;;;10.50;99.90;;;;;;5062290;28;20049;-58
2023/05/18 02:22:40;;;;;;;9.20;4.35;;;10.50;99.90;;;;;;5072819;28;20051;-57
2023/05/18 02:25:08;;;;;;;8.88;4.80;;;10.50;99.90;;;;;;5071962;28;20045;-58
2023/05/18 02:27:36;;;;;;;15.27;4.63;;;10.50;99.90;;;;;;5071702;28;20044;-58
2023/05/18 02:30:07;;;;;;;13.73;5.07;;;10.50;99.90;;;;;;5072257;28;20048;-57
2023/05/18 02:32:38;;;;;;;11.05;5.15;;;10.50;99.90;;;;;;5072688;28;20062;-59
2023/05/18 02:35:07;;;;;;;11.02;4.50;;;10.50;99.90;;;;;;5072481;28;20053;-59
2023/05/18 02:37:38;;;;;;;8.88;4.10;;;10.50;99.90;;;;;;5068054;28;20052;-59
2023/05/18 02:40:12;;;;;;;10.57;5.45;;;10.50;99.90;;;;;;5059381;28;20036;-59
2023/05/18 02:42:41;;;;;;;11.68;5.18;;;10.50;99.90;;;;;;5051311;28;20053;-59
2023/05/18 02:45:10;;;;;;;12.50;5.13;;;10.50;99.90;;;;;;5051635;28;20048;-57
2023/05/18 02:47:42;;;;;;;12.82;5.88;;;10.40;99.90;;;;;;5074498;28;20285;-58
2023/05/18 02:50:11;;;;;;;11.65;5.03;;;10.50;99.90;;;;;;5075707;28;20048;-60
2023/05/18 02:52:40;;;;;;;9.00;5.33;;;10.40;99.90;;;;;;5070446;28;20044;-58
2023/05/18 02:55:08;;;;;;;10.90;5.03;;;10.40;99.90;;;;;;5054707;28;20044;-59
2023/05/18 02:58:01;;;;;;;10.30;4.80;;;10.40;99.90;;;;;;5069166;28;20063;-60
2023/05/18 03:00:54;;;;;;;10.10;4.70;;;10.40;99.90;;;;;;5071041;28;20051;-59
2023/05/18 03:03:22;;;;;;;8.75;4.60;;;10.40;99.90;;;;;;5058502;28;20049;-58
2023/05/18 03:05:53;;;;;;;7.68;4.45;;;10.30;99.90;;;;;;5052099;28;20488;-60
2023/05/18 03:08:21;;;;;;;13.45;5.55;;;10.30;99.90;;;;;;5070195;28;20036;-56
2023/05/18 03:10:49;;;;;;;14.50;5.28;;;10.30;99.90;;;;;;5070531;28;20388;-58
2023/05/18 03:13:17;;;;;;;15.43;4.68;;;10.20;99.90;;;;;;5071038;28;20048;-57
2023/05/18 03:15:45;;;;;;;9.85;4.68;;;10.20;99.90;;;;;;5071943;28;20053;-58
2023/05/18 03:18:14;;;;;;;9.45;4.80;;;10.30;99.90;;;;;;5060603;28;20052;-57
2023/05/18 03:20:43;;;;;;;11.63;4.70;;;10.10;99.90;;;;;;5071763;28;20048;-56
2023/05/18 03:23:11;;;;;;;13.13;5.17;;;10.20;99.90;;;;;;5070624;28;20446;-59
2023/05/18 03:25:39;;;;;;;12.52;4.70;;;10.20;99.90;;;;;;5070629;28;20052;-59
2023/05/18 03:28:07;;;;;;;10.57;4.63;;;10.10;99.90;;;;;;5071747;28;20430;-59
2023/05/18 03:30:36;;;;;;;9.85;4.47;;;10.10;99.90;;;;;;5050437;28;20041;-59
2023/05/18 03:33:05;;;;;;;12.00;5.67;;;10.00;99.90;;;;;;5050488;28;20049;-58
2023/05/18 03:35:33;;;;;;;14.68;5.80;;;10.00;99.90;;;;;;5051812;28;20041;-58
2023/05/18 03:38:01;;;;;;;11.55;5.25;;;10.00;99.90;;;;;;5059814;28;20052;-57
2023/05/18 03:40:32;;;;;;;11.00;5.35;;;9.90;99.90;;;;;;5070342;28;20041;-57
2023/05/18 03:43:00;;;;;;;8.90;5.10;;;9.80;99.90;;;;;;5071200;28;20037;-57
2023/05/18 03:45:29;;;;;;;10.55;4.50;;;9.90;99.90;;;;;;5070385;28;20388;-57
2023/05/18 03:47:57;;;;;;;9.38;4.75;;;9.90;99.90;;;;;;5075560;28;20048;-57
2023/05/18 03:50:27;;;;;;;8.43;4.90;;;9.80;99.90;;;;;;5071499;28;20048;-57
2023/05/18 03:52:55;;;;;;;9.73;5.15;;;9.80;99.90;;;;;;5070424;28;20041;-58
2023/05/18 03:55:23;;;;;;;10.70;5.80;;;9.80;99.90;;;;;;5070484;28;20051;-59
2023/05/18 03:57:53;;;;;;;10.82;5.28;;;9.70;99.90;;;;;;5070200;28;20052;-58
2023/05/18 04:00:22;;;;;;;12.55;5.47;;;9.80;99.90;;;;;;5069784;28;20045;-57
2023/05/18 04:02:50;;;;;;;12.93;5.28;;;9.70;99.90;;;;;;5069587;28;20039;-56
2023/05/18 04:05:23;;;;;;;13.73;4.72;;;9.70;99.90;;;;;;5070411;28;20044;-57
2023/05/18 04:07:50;;;;;;;11.07;5.15;;;9.80;99.90;;;;;;5071412;28;20044;-56
2023/05/18 04:10:20;;;;;;;15.50;6.72;;;9.80;99.90;;;;;;5070333;28;20041;-55
2023/05/18 04:12:48;;;;;;;12.98;4.95;;;9.80;99.90;;;;;;5071179;28;20067;-57
2023/05/18 04:15:16;;;;;;;9.35;4.72;;;9.80;99.90;;;;;;5070161;28;20041;-56
2023/05/18 04:17:44;;;;;;;11.13;4.53;;;9.80;99.90;;;;;;5073874;28;20040;-58
2023/05/18 04:20:13;;;;;;;13.35;5.68;;;9.80;99.90;;;;;;5090739;28;20036;-57
2023/05/18 04:22:45;;;;;;;11.23;5.53;;;9.70;99.90;;;;;;5070708;28;20044;-58
2023/05/18 04:25:14;;;;;;;9.98;4.72;;;9.70;99.90;;;;;;5070074;28;20056;-58
2023/05/18 04:27:45;;;;;;;10.32;4.72;;;9.70;99.90;;;;;;5070022;28;20068;-57
2023/05/18 04:30:17;;;;;;;14.43;5.20;;;9.70;99.90;;;;;;5053331;28;20063;-57
2023/05/18 04:32:45;;;;;;;9.57;4.70;;;9.70;99.90;;;;;;5069795;28;20040;-56
2023/05/18 04:35:14;;;;;;;11.55;4.88;;;9.70;99.90;;;;;;5047236;28;20056;-57
2023/05/18 04:37:42;;;;;;;8.68;5.00;;;9.70;99.90;;;;;;5068760;28;20041;-55
2023/05/18 04:40:17;;;;;;;19.70;6.15;;;9.70;99.90;;;;;;5069995;28;20404;-56
2023/05/18 04:42:47;;;;;;;10.20;5.45;;;9.70;99.90;;;;;;5069489;28;20050;-56
2023/05/18 04:45:24;;;;;;;11.32;5.95;;;9.70;99.90;;;;;;5054323;28;20426;-56
2023/05/18 04:47:54;;;;;;;9.88;4.82;;;9.70;99.90;;;;;;5056739;28;20048;-59
2023/05/18 04:50:22;;;;;;;10.93;5.07;;;9.70;99.90;;;;;;5048195;28;20064;-58
2023/05/18 04:52:51;;;;;;;17.55;5.10;;;9.80;99.90;;;;;;5047568;28;20400;-58
2023/05/18 04:55:24;;;;;;;12.73;5.82;;;9.80;99.90;;;;;;5046330;28;20396;-57
2023/05/18 04:57:56;;;;;;;12.07;5.22;;;9.80;99.90;;;;;;5054502;28;20044;-57
2023/05/18 05:00:28;;;;;;;13.65;5.00;;;9.80;99.90;;;;;;5061927;28;20045;-57
2023/05/18 05:02:58;;;;;;;11.85;5.40;;;9.80;99.90;;;;;;5049378;28;20048;-56
2023/05/18 05:05:26;;;;;;;11.27;4.50;;;9.80;99.90;;;;;;5062883;28;20048;-58
2023/05/18 05:07:54;;;;;;;10.88;5.28;;;9.80;99.90;;;;;;5071103;28;20550;-56
2023/05/18 05:10:24;;;;;;;15.02;5.93;;;9.80;99.90;;;;;;5078490;28;20053;-56
2023/05/18 05:12:52;;;;;;;11.57;5.53;;;9.80;99.90;;;;;;5068089;28;20055;-57
2023/05/18 05:15:20;;;;;;;13.25;5.75;;;9.80;99.90;;;;;;5071008;28;20043;-58
2023/05/18 05:17:50;;;;;;;;;;;9.80;99.90;;;;;;5071270;28;20063;-56
2023/05/18 05:20:18;;;;;;;10.80;4.97;;;9.80;99.90;;;;;;5029790;28;19924;-57
2023/05/18 05:22:47;;;;;;;15.85;5.70;;;9.80;99.90;;;;;;5058402;28;20052;-57
2023/05/18 05:25:21;;;;;;;13.27;6.10;;;9.80;99.90;;;;;;5086395;28;20051;-56
2023/05/18 05:27:50;;;;;;;13.18;5.78;;;9.70;99.90;;;;;;5077642;28;20044;-56
2023/05/18 05:30:20;;;;;;;13.82;5.97;;;9.80;99.90;;;;;;5086308;28;20048;-58
2023/05/18 05:32:48;;;;;;;23.10;7.03;;;9.80;99.90;;;;;;5056751;28;20859;-59
2023/05/18 05:35:17;;;;;;;11.23;5.80;;;9.90;99.90;;;;;;5049906;28;20515;-56
2023/05/18 05:37:46;;;;;;;9.88;5.95;;;9.90;99.90;;;;;;5056953;28;20052;-58
2023/05/18 05:40:15;;;;;;;13.93;6.15;;;10.00;99.90;;;;;;5069174;28;20048;-57
2023/05/18 05:42:45;;;;;;;12.57;5.70;;;10.10;99.90;;;;;;5069235;28;20048;-57
2023/05/18 05:45:14;;;;;;;13.00;6.35;;;10.10;99.90;;;;;;5054658;28;20044;-57
2023/05/18 05:47:52;;;;;;;10.80;5.53;;;10.20;99.90;;;;;;5062903;28;20048;-59
2023/05/18 05:50:22;;;;;;;13.13;6.72;;;10.20;99.90;;;;;;5048840;28;20048;-59
2023/05/18 05:52:53;;;;;;;12.52;6.72;;;10.30;99.90;;;;;;5046087;28;20060;-58
2023/05/18 05:55:25;;;;;;;19.48;6.47;;;10.20;99.90;;;;;;5065570;28;20043;-60
2023/05/18 05:57:53;;;;;;;20.55;6.82;;;10.30;99.90;;;;;;5068702;28;20040;-58
2023/05/18 06:00:23;;;;;;;15.85;7.20;;;10.30;99.90;;;;;;5068677;28;20416;-56
2023/05/18 06:02:59;;;;;;;12.85;7.00;;;;;;;;;;5065770;28;20048;-58
2023/05/18 06:05:40;;;;;;;14.60;6.10;;;10.50;99.90;;;;;;5061074;28;20056;-56
2023/05/18 06:08:10;;;;;;;16.98;7.45;;;10.60;99.90;;;;;;5065277;28;20049;-57
2023/05/18 06:10:40;;;;;;;16.05;6.40;;;10.60;99.90;;;;;;5068854;28;20048;-57
2023/05/18 06:13:09;;;;;;;16.15;6.30;;;10.70;99.90;;;;;;5071438;28;20052;-59
2023/05/18 06:15:57;;;;;;;13.23;6.57;;;10.90;99.90;;;;;;5072019;28;20048;-59
2023/05/18 06:18:25;;;;;;;12.63;6.22;;;10.90;99.90;;;;;;5085335;28;20048;-56
2023/05/18 06:20:59;;;;;;;14.65;6.07;;;11.10;99.90;;;;;;5065241;28;20055;-59
2023/05/18 06:23:27;;;;;;;18.45;6.57;;;11.10;99.90;;;;;;5067822;28;20067;-57
2023/05/18 06:26:01;;;;;;;13.77;5.68;;;11.20;99.90;;;;;;5069628;28;20041;-59
2023/05/18 06:28:50;;;;;;;13.77;5.45;;;11.30;99.90;;;;;;5068073;28;20047;-58
2023/05/18 06:31:29;;;;;;;14.85;6.18;;;11.40;99.90;;;;;;5067650;28;20521;-58
2023/05/18 06:34:20;;;;;;;13.40;6.60;;;11.60;99.90;;;;;;5068157;28;20053;-58
2023/05/18 06:36:48;;;;;;;15.10;5.85;;;11.60;99.90;;;;;;5050611;28;20052;-58
2023/05/18 06:39:16;;;;;;;14.48;6.00;;;11.70;99.90;;;;;;5068394;28;20037;-58
2023/05/18 06:41:44;;;;;;;19.05;5.45;;;11.80;99.90;;;;;;5068102;28;20521;-60
2023/05/18 06:44:21;;;;;;;14.00;5.25;;;11.80;99.90;;;;;;5080415;28;20048;-58
2023/05/18 06:47:10;;;;;;;18.35;6.60;;;12.00;99.90;;;;;;5084881;28;20365;-58
2023/05/18 06:49:39;;;;;;;23.20;5.75;;;12.00;99.90;;;;;;5067053;28;20055;-59
2023/05/18 06:52:08;;;;;;;16.33;5.60;;;12.10;99.90;;;;;;5046903;28;20056;-58
2023/05/18 06:54:37;;;;;;;17.10;6.28;;;12.20;99.90;;;;;;5066827;28;20043;-59
2023/05/18 06:57:05;;;;;;;10.75;5.13;;;12.20;99.90;;;;;;5064188;28;20036;-57
2023/05/18 06:59:33;;;;;;;14.32;5.03;;;12.30;99.90;;;;;;5063872;28;20059;-60
2023/05/18 07:02:02;;;;;;;14.48;4.57;;;12.30;99.90;;;;;;5064042;28;20040;-59
2023/05/18 07:04:31;;;;;;;11.77;4.53;;;12.30;99.90;;;;;;5065824;28;20395;-58
2023/05/18 07:06:59;;;;;;;9.90;4.72;;;12.30;99.90;;;;;;5066070;28;20407;-59
2023/05/18 07:09:27;;;;;;;10.48;4.63;;;12.40;99.90;;;;;;5066905;28;20040;-59
2023/05/18 07:11:55;;;;;;;12.60;5.28;;;12.40;99.90;;;;;;5068796;28;20044;-57
2023/05/18 07:14:23;;;;;;;12.93;4.40;;;12.40;99.90;;;;;;5065376;28;20037;-57
2023/05/18 07:16:51;;;;;;;14.80;3.88;;;12.50;99.90;;;;;;5060835;28;20503;-57
2023/05/18 07:19:19;;;;;;;10.73;4.10;;;12.50;99.90;;;;;;5073153;28;20374;-57
2023/05/18 07:21:48;;;;;;;10.07;4.10;;;12.60;99.90;;;;;;5066871;28;20044;-57
2023/05/18 07:24:16;;;;;;;11.90;4.85;;;12.80;99.90;;;;;;5069519;28;20520;-57
2023/05/18 07:26:44;;;;;;;10.43;4.50;;;12.90;99.90;;;;;;5068496;28;20052;-58
2023/05/18 07:29:12;;;;;;;14.75;4.82;;;12.80;99.90;;;;;;5084243;28;20052;-58
2023/05/18 07:31:40;;;;;;;9.57;4.15;;;12.90;99.90;;;;;;5059075;28;20041;-59
2023/05/18 07:34:08;;;;;;;14.80;4.07;;;13.00;99.90;;;;;;5056811;28;20055;-61
2023/05/18 07:36:36;;;;;;;12.75;3.83;;;13.00;99.90;;;;;;5067983;28;20166;-60
2023/05/18 07:39:04;;;;;;;8.13;4.03;;;13.10;99.90;;;;;;5052851;28;20044;-58
2023/05/18 07:41:32;;;;;;;13.82;4.45;;;13.20;99.90;;;;;;5062337;28;20146;-58
2023/05/18 07:44:00;;;;;;;11.75;5.13;;;13.00;99.90;;;;;;5052701;28;20056;-58
2023/05/18 07:46:28;;;;;;;7.80;4.10;;;13.20;99.90;;;;;;5050804;28;20052;-58
2023/05/18 07:48:56;;;;;;;9.05;4.53;;;13.30;99.90;;;;;;5058627;28;20059;-60
2023/05/18 07:51:24;;;;;;;10.65;4.25;;;13.40;99.90;;;;;;5049133;28;20041;-59
2023/05/18 07:53:52;;;;;;;11.35;5.07;;;13.50;99.90;;;;;;5071525;28;20516;-58
2023/05/18 07:56:21;;;;;;;12.35;4.47;;;;;;;;;;5086065;28;20411;-59
2023/05/18 07:58:49;;;;;;;11.93;4.88;;;13.60;99.90;;;;;;5061228;28;20070;-60
2023/05/18 08:01:18;;;;;;;21.52;5.95;;;13.80;99.90;;;;;;5053887;28;20052;-60
2023/05/18 08:03:45;;;;;;;12.35;5.07;;;13.80;99.90;;;;;;5074472;28;20040;-60
2023/05/18 08:06:13;;;;;;;14.27;4.45;;;13.90;99.90;;;;;;5065507;28;20053;-60
2023/05/18 08:08:41;;;;;;;13.25;4.72;;;14.00;99.90;;;;;;5061581;28;20047;-58
2023/05/18 08:11:09;;;;;;;11.52;4.55;;;14.00;99.90;;;;;;5066153;28;20053;-59
2023/05/18 08:13:37;;;;;;;11.95;5.07;;;14.10;99.90;;;;;;5071949;28;20059;-58
2023/05/18 08:16:05;;;;;;;15.55;5.05;;;14.20;99.90;;;;;;5068397;28;20044;-60
2023/05/18 08:18:39;;;;;;;14.07;4.80;;;14.30;99.90;;;;;;5079014;28;20507;-58
2023/05/18 08:21:08;;;;;;;17.30;4.85;;;14.30;99.90;;;;;;5057792;28;20523;-60
2023/05/18 08:23:36;;;;;;;10.27;4.72;;;14.30;99.90;;;;;;5068536;28;20494;-59
2023/05/18 08:26:05;;;;;;;12.20;4.45;;;14.40;99.90;;;;;;5087888;28;20044;-60
2023/05/18 08:28:33;;;;;;;10.00;4.45;;;14.40;99.90;;;;;;5067789;28;20528;-58
2023/05/18 08:31:01;;;;;;;12.80;4.72;;;14.50;99.90;;;;;;5067485;28;20056;-59
2023/05/18 08:33:31;;;;;;;7.15;3.65;;;14.50;99.90;;;;;;5072164;28;20071;-58
2023/05/18 08:36:01;;;;;;;11.23;4.07;;;14.50;99.90;;;;;;5050821;28;20060;-58
2023/05/18 08:38:30;;;;;;;10.13;4.28;;;14.60;99.90;;;;;;5059612;28;20052;-58
2023/05/18 08:41:13;;;;;;;10.73;4.10;;;14.70;99.90;;;;;;5067644;28;20041;-56
2023/05/18 08:43:45;;;;;;;11.90;4.35;;;14.90;99.90;;;;;;5060327;28;20063;-58
2023/05/18 08:46:32;;;;;;;9.77;4.40;;;14.80;99.90;;;;;;5087869;28;20563;-58
2023/05/18 08:49:02;;;;;;;12.20;4.28;;;15.00;99.90;;;;;;5081766;28;20044;-61
2023/05/18 08:51:35;;;;;;;6.90;3.55;;;15.10;99.90;;;;;;5058455;28;20060;-57
2023/05/18 08:54:05;;;;;;;17.10;4.32;;;15.20;99.90;;;;;;5060502;28;20616;-60
2023/05/18 08:56:33;;;;;;;17.70;5.13;;;15.30;99.90;;;;;;5070382;28;20048;-59
2023/05/18 08:59:06;;;;;;;11.98;3.75;;;15.40;99.90;;;;;;5069127;28;20075;-58
2023/05/18 09:01:35;;;;;;;8.43;3.10;;;15.50;99.90;;;;;;5070754;28;20067;-59
2023/05/18 09:04:04;;;;;;;7.88;4.18;;;15.60;99.90;;;;;;5067350;28;20033;-57
2023/05/18 09:06:35;;;;;;;11.85;4.03;;;15.80;99.90;;;;;;5051534;28;20056;-58
2023/05/18 09:09:03;;;;;;;11.75;3.90;;;;;;;;;;5065897;28;20520;-57
2023/05/18 09:11:33;;;;;;;7.45;3.22;;;16.00;99.90;;;;;;5065519;28;20048;-58
2023/05/18 09:14:02;;;;;;;9.05;3.58;;;16.10;99.90;;;;;;5068711;28;20044;-57
2023/05/18 09:16:32;;;;;;;10.07;3.63;;;16.30;99.90;;;;;;5080730;28;20045;-58
2023/05/18 09:19:00;;;;;;;12.68;3.80;;;16.40;99.90;;;;;;5084455;28;20051;-57
2023/05/18 09:21:31;;;;;;;8.95;3.53;;;16.70;99.90;;;;;;5061594;28;20512;-57
2023/05/18 09:24:00;;;;;;;9.15;3.85;;;16.70;99.90;;;;;;5069559;28;20523;-59
2023/05/18 09:26:28;;;;;;;7.20;4.35;;;16.90;99.90;;;;;;5070511;28;20052;-57
2023/05/18 09:28:56;;;;;;;8.52;3.20;;;17.00;99.90;;;;;;5069068;28;20043;-60
2023/05/18 09:31:25;;;;;;;7.10;3.38;;;17.20;99.90;;;;;;5069896;28;20506;-61
2023/05/18 09:33:53;;;;;;;;;;;17.40;99.90;;;;;;5068991;28;20427;-59
2023/05/18 09:36:34;;;;;;;6.93;3.72;;;17.60;99.90;;;;;;5063303;28;19928;-58
2023/05/18 09:39:08;;;;;;;15.63;4.03;;;17.60;99.90;;;;;;5069960;28;20044;-58
2023/05/18 09:41:40;;;;;;;10.05;3.60;;;17.70;99.90;;;;;;5070034;28;20040;-59
2023/05/18 09:44:09;;;;;;;9.48;3.40;;;17.80;99.90;;;;;;5080120;28;20036;-58
2023/05/18 09:46:38;;;;;;;9.07;4.20;;;18.00;99.90;;;;;;5082276;28;20491;-58
2023/05/18 09:49:08;;;;;;;10.20;3.90;;;18.10;99.90;;;;;;5075161;28;20041;-62
2023/05/18 09:51:39;;;;;;;7.82;3.35;;;18.10;99.90;;;;;;5056744;28;20053;-62
2023/05/18 09:54:09;;;;;;;9.75;3.88;;;18.30;99.90;;;;;;5059529;28;20044;-62
2023/05/18 09:56:37;;;;;;;9.38;3.95;;;18.40;99.90;;;;;;5070109;28;20373;-60
2023/05/18 09:59:11;;;;;;;10.35;3.92;;;18.40;99.90;;;;;;5068931;28;20048;-61
2023/05/18 10:01:55;;;;;;;9.38;3.78;;;18.50;99.90;;;;;;5069227;28;20037;-60
2023/05/18 10:04:34;;;;;;;13.82;4.68;;;18.60;99.90;;;;;;5064375;28;20037;-61
2023/05/18 10:07:08;;;;;;;7.60;3.58;;;18.60;99.90;;;;;;5063698;28;20052;-58
2023/05/18 10:09:36;;;;;;;7.03;3.03;;;18.70;99.90;;;;;;5066056;28;20427;-62
2023/05/18 10:12:13;;;;;;;8.18;3.90;;;18.80;99.90;;;;;;5062445;28;20049;-62
2023/05/18 10:14:43;;;;;;;7.10;3.40;;;19.00;99.90;;;;;;5083997;28;20044;-60
2023/05/18 10:17:12;;;;;;;9.43;3.47;;;19.20;99.90;;;;;;5088646;28;20036;-61
2023/05/18 10:19:44;;;;;;;8.23;3.72;;;19.30;99.90;;;;;;5049753;28;20072;-63
2023/05/18 10:22:15;;;;;;;10.48;4.13;;;19.50;99.90;;;;;;5050684;28;20127;-63
2023/05/18 10:24:48;;;;;;;8.52;4.50;;;19.50;99.90;;;;;;5083182;28;20044;-59
2023/05/18 10:27:18;;;;;;;6.82;3.53;;;19.60;99.90;;;;;;5087818;28;20052;-60
2023/05/18 10:29:48;;;;;;;9.90;4.10;;;19.60;99.60;;;;;;5069679;28;20044;-57
2023/05/18 10:32:19;;;;;;;9.70;4.47;;;19.50;98.70;;;;;;5068444;28;20060;-58
2023/05/18 10:34:48;;;;;;;9.48;4.38;;;19.50;98.20;;;;;;5050989;28;20131;-60
2023/05/18 10:37:18;;;;;;;6.85;3.58;;;19.50;98.30;;;;;;5054641;28;20053;-59
2023/05/18 10:39:49;;;;;;;9.10;3.58;;;19.60;98.80;;;;;;5069185;28;20045;-60
2023/05/18 10:42:19;;;;;;;10.75;3.40;;;19.70;97.20;;;;;;5068570;28;20056;-59
2023/05/18 10:44:49;;;;;;;8.05;3.65;;;19.70;97.20;;;;;;5064584;28;20514;-59
2023/05/18 10:47:18;;;;;;;7.45;3.42;;;19.80;96.50;;;;;;5069048;28;20052;-59
2023/05/18 10:49:48;;;;;;;8.10;4.57;;;19.80;96.50;;;;;;5089078;28;20062;-58
2023/05/18 10:52:16;;;;;;;12.85;4.43;;;20.00;96.80;;;;;;5060200;28;20301;-60
2023/05/18 10:54:45;;;;;;;9.52;4.05;;;20.10;95.30;;;;;;5067584;28;20052;-62
2023/05/18 10:57:16;;;;;;;8.18;3.42;;;20.30;95.20;;;;;;5069867;28;20403;-62
2023/05/18 10:59:46;;;;;;;8.45;3.90;;;20.40;95.10;;;;;;5051183;28;20412;-61
2023/05/18 11:02:17;;;;;;;8.30;4.00;;;20.50;94.50;;;;;;5048036;28;20056;-61
2023/05/18 11:04:46;;;;;;;7.90;3.80;;;20.80;93.20;;;;;;5058720;28;20040;-63
2023/05/18 11:07:16;;;;;;;8.40;3.63;;;20.80;93.40;;;;;;5061534;28;20055;-58
2023/05/18 11:09:44;;;;;;;6.82;3.33;;;20.80;92.80;;;;;;5068782;28;20055;-63
2023/05/18 11:12:13;;;;;;;8.43;3.67;;;20.80;91.80;;;;;;5067745;28;20063;-59
2023/05/18 11:14:52;;;;;;;11.30;3.97;;;20.70;92.30;;;;;;5082424;28;20054;-58
2023/05/18 11:17:24;;;;;;;7.85;3.85;;;20.70;91.50;;;;;;5081712;28;20142;-63
2023/05/18 11:20:07;;;;;;;7.65;3.75;;;20.60;91.90;;;;;;5068328;28;20545;-59
2023/05/18 11:22:50;;;;;;;8.45;3.60;;;20.50;91.40;;;;;;5052251;28;20048;-59
2023/05/18 11:25:25;;;;;;;5.55;3.25;;;20.40;92.10;;;;;;5067085;28;20060;-58
2023/05/18 11:28:05;;;;;;;17.10;4.15;;;20.30;91.90;;;;;;5065484;28;20532;-61
2023/05/18 11:30:32;;;;;;;;;;;20.30;91.20;;;;;;5067393;28;20059;-60
2023/05/18 11:33:10;;;;;;;13.27;3.83;;;20.50;91.80;;;;;;5066665;28;19920;-62
2023/05/18 11:36:14;;;;;;;9.13;3.47;;;20.20;92.10;;;;;;5067774;28;20143;-61
2023/05/18 11:39:07;;;;;;;10.85;3.53;;;20.20;92.10;;;;;;5060541;28;20041;-59
2023/05/18 11:41:42;;;;;;;8.40;3.58;;;20.30;92.00;;;;;;5068357;28;20102;-63
2023/05/18 11:44:19;;;;;;;6.38;3.50;;;20.30;90.50;;;;;;5068030;28;20411;-62
2023/05/18 11:46:51;;;;;;;6.07;3.00;;;20.30;90.30;;;;;;5067986;28;20528;-61
2023/05/18 11:49:26;;;;;;;11.60;4.38;;;20.40;90.20;;;;;;5068850;28;20059;-63
2023/05/18 11:52:05;;;;;;;8.48;3.92;;;20.50;90.50;;;;;;5059720;28;20065;-62
2023/05/18 11:54:45;;;;;;;9.30;3.93;;;20.70;87.60;;;;;;5058970;28;20391;-61
2023/05/18 11:57:16;;;;;;;6.68;3.70;;;20.70;88.10;;;;;;5068179;28;20060;-61
2023/05/18 11:59:54;;;;;;;6.88;3.55;;;21.00;88.90;;;;;;5066979;28;20399;-59
2023/05/18 12:02:25;;;;;;;7.45;3.65;;;21.00;89.30;;;;;;5066305;28;20063;-60
2023/05/18 12:04:55;;;;;;;9.75;3.85;;;21.20;90.00;;;;;;5077389;28;20048;-60
2023/05/18 12:07:24;;;;;;;6.65;3.60;;;21.50;90.70;;;;;;5054449;28;20792;-63
2023/05/18 12:09:51;;;;;;;6.57;3.83;;;21.90;88.30;;;;;;5066220;28;20044;-59
2023/05/18 12:12:20;;;;;;;7.32;3.78;;;22.30;81.40;;;;;;5052735;28;20857;-59
2023/05/18 12:14:55;;;;;;;7.70;3.72;;;22.30;81.10;;;;;;5052285;28;20053;-58
2023/05/18 12:17:38;;;;;;;8.68;4.20;;;22.30;81.90;;;;;;5051946;28;20051;-59
2023/05/18 12:20:20;;;;;;;5.75;3.72;;;22.40;81.40;;;;;;5048385;28;20048;-59
2023/05/18 12:22:53;;;;;;;9.05;3.53;;;22.40;82.20;;;;;;5052586;28;20068;-58
2023/05/18 12:25:23;;;;;;;9.68;4.03;;;22.40;80.10;;;;;;5071168;28;20048;-59
2023/05/18 12:27:51;;;;;;;;;;;22.30;80.50;;;;;;5070242;28;20055;-59
2023/05/18 12:30:24;;;;;;;15.75;4.22;;;22.30;77.20;;;;;;5071597;28;19924;-60
2023/05/18 12:32:54;;;;;;;5.78;3.72;;;22.20;78.40;;;;;;5067916;28;20059;-60
2023/05/18 12:35:26;;;;;;;13.30;3.80;;;22.20;79.00;;;;;;5068473;28;20056;-59
2023/05/18 12:38:00;;;;;;;8.68;3.30;;;22.30;78.40;;;;;;5063155;28;20052;-61
2023/05/18 12:40:42;;;;;;;46.85;7.45;;;22.60;79.30;;;;;;5071111;28;20044;-64
2023/05/18 12:43:12;;;;;;;26.45;4.00;;;22.80;76.10;;;;;;5073656;28;20059;-62
2023/05/18 12:45:43;;;;;;;8.85;3.90;;;23.00;74.80;;;;;;5076457;28;20437;-61
2023/05/18 12:48:12;;;;;;;6.82;3.53;;;23.00;75.30;;;;;;5068138;28;20672;-60
2023/05/18 12:50:47;;;;;;;8.52;3.50;;;23.10;75.60;;;;;;5062593;28;20041;-59
2023/05/18 12:53:16;;;;;;;10.75;3.63;;;23.20;75.70;;;;;;5056452;28;20055;-63
2023/05/18 12:55:44;;;;;;;7.70;3.78;;;23.30;73.00;;;;;;5054565;28;20056;-60
2023/05/18 12:58:15;;;;;;;7.95;3.58;;;23.20;73.30;;;;;;5055793;28;20052;-59
2023/05/18 13:00:48;;;;;;;12.07;4.65;;;23.10;74.20;;;;;;5067473;28;20057;-59
2023/05/18 13:03:18;;;;;;;12.18;3.67;;;23.00;73.30;;;;;;5055999;28;20553;-59
2023/05/18 13:06:03;;;;;;;6.47;3.60;;;22.90;73.00;;;;;;5071777;28;20044;-57